РПИ Туркменбаши

Руководство

Evgeny Vygornitsky*

Куратор
Инструкторы РПИ
Evgeny Vygornitsky (Supervisor)
Входит в состав
Центральная Азия

Диспетчеры РПИ

Диспетчер Рейтинг Допуски *

Аэропорты РПИ

ICAO Город Название Погода
UTAK Туркменбаши Туркменбаши UTAK 240700Z 31008KT CAVOK 23/09 Q1020 R16R/CLRD70 NOSIG